ENAT/ALF METAR and TAF weather

Enter ICAO airport designator
Station Type Date Time Source
ENAT METAR 2023/02/06 19:50 UTC NOAA

ENAT 061950Z 18008KT 150V210 9999 BKN053 05/M00 Q1005 RMK WIND 700FT 19018KT


Station Type Date Time Source
ENAT Decoded METAR 2023/02/06 19:50 UTC NOAA

Alta Lufthavn, Norway (ENAT) 69-59N 023-22E 3M
Feb 06, 2023 - 02:50 PM EST / 2023.02.06 1950 UTC
Wind: from the S (180 degrees) at 9 MPH (8 KT) (direction variable):0
Visibility: greater than 7 mile(s):0
Sky conditions: mostly cloudy
Temperature: 41 F (5 C)
Dew Point: 32 F (0 C)
Relative Humidity: 70%
Pressure (altimeter): 29.68 in. Hg (1005 hPa)
ob: ENAT 061950Z 18008KT 150V210 9999 BKN053 05/M00 Q1005 RMK WIND 700FT 19018KT
cycle: 20

Station Type Date Time Source
ENAT TAF 2008/11/30 23:00 UTC NOAA

TAF TAF ENAT 302300Z 3023/0102 22005KT 7000 -SN FEW008 BKN020
TEMPO 3023/0102 3000 -SN VV012

Example: see airport list